sensor_id;sensor_type;location;lat;lon;timestamp;P1;durP1;ratioP1;P2;durP2;ratioP2
12818;SDS011;6474;53.474;9.894;2023-07-29T00:00:57;1.33;;;1.33;;
12818;SDS011;6474;53.474;9.894;2023-07-29T00:03:26;0.90;;;0.90;;
12818;SDS011;6474;53.474;9.894;2023-07-29T00:05:56;1.20;;;1.20;;
12818;SDS011;6474;53.474;9.894;2023-07-29T00:08:24;0.98;;;0.98;;
12818;SDS011;6474;53.474;9.894;2023-07-29T00:10:52;1.02;;;1.02;;
12818;SDS011;6474;53.474;9.894;2023-07-29T00:13:20;1.00;;;1.00;;
12818;SDS011;6474;53.474;9.894;2023-07-29T00:15:48;1.30;;;1.30;;
12818;SDS011;6474;53.474;9.894;2023-07-29T00:18:20;1.23;;;1.15;;
12818;SDS011;6474;53.474;9.894;2023-07-29T00:20:49;1.13;;;1.13;;
12818;SDS011;6474;53.474;9.894;2023-07-29T00:23:18;1.38;;;1.38;;
12818;SDS011;6474;53.474;9.894;2023-07-29T00:25:46;1.50;;;1.50;;
12818;SDS011;6474;53.474;9.894;2023-07-29T00:28:14;1.35;;;1.25;;
12818;SDS011;6474;53.474;9.894;2023-07-29T00:30:42;1.60;;;1.50;;
12818;SDS011;6474;53.474;9.894;2023-07-29T00:33:13;1.77;;;1.73;;
12818;SDS011;6474;53.474;9.894;2023-07-29T00:35:42;1.92;;;1.83;;
12818;SDS011;6474;53.474;9.894;2023-07-29T00:38:10;4.18;;;1.50;;
12818;SDS011;6474;53.474;9.894;2023-07-29T00:40:41;1.85;;;1.83;;
12818;SDS011;6474;53.474;9.894;2023-07-29T00:43:09;1.90;;;1.73;;
12818;SDS011;6474;53.474;9.894;2023-07-29T00:45:37;1.60;;;1.60;;
12818;SDS011;6474;53.474;9.894;2023-07-29T00:48:07;1.73;;;1.73;;
12818;SDS011;6474;53.474;9.894;2023-07-29T00:50:35;2.33;;;1.58;;
12818;SDS011;6474;53.474;9.894;2023-07-29T00:53:04;1.27;;;1.27;;
12818;SDS011;6474;53.474;9.894;2023-07-29T00:55:33;1.90;;;1.50;;
12818;SDS011;6474;53.474;9.894;2023-07-29T00:58:03;2.17;;;2.08;;
12818;SDS011;6474;53.474;9.894;2023-07-29T01:00:31;1.58;;;1.58;;
12818;SDS011;6474;53.474;9.894;2023-07-29T01:03:00;1.50;;;1.50;;
12818;SDS011;6474;53.474;9.894;2023-07-29T01:05:30;4.90;;;1.90;;
12818;SDS011;6474;53.474;9.894;2023-07-29T01:08:06;1.80;;;1.80;;
12818;SDS011;6474;53.474;9.894;2023-07-29T01:10:40;1.40;;;1.40;;
12818;SDS011;6474;53.474;9.894;2023-07-29T01:13:16;1.65;;;1.65;;
12818;SDS011;6474;53.474;9.894;2023-07-29T01:15:48;1.30;;;1.30;;
12818;SDS011;6474;53.474;9.894;2023-07-29T01:18:23;1.40;;;1.40;;
12818;SDS011;6474;53.474;9.894;2023-07-29T01:20:58;2.13;;;1.15;;
12818;SDS011;6474;53.474;9.894;2023-07-29T01:23:30;1.35;;;1.35;;
12818;SDS011;6474;53.474;9.894;2023-07-29T01:25:58;1.80;;;1.70;;
12818;SDS011;6474;53.474;9.894;2023-07-29T01:28:27;1.45;;;1.45;;
12818;SDS011;6474;53.474;9.894;2023-07-29T01:30:57;1.65;;;1.65;;
12818;SDS011;6474;53.474;9.894;2023-07-29T01:33:30;1.80;;;1.70;;
12818;SDS011;6474;53.474;9.894;2023-07-29T01:36:05;1.80;;;1.80;;
12818;SDS011;6474;53.474;9.894;2023-07-29T01:38:38;1.70;;;1.70;;
12818;SDS011;6474;53.474;9.894;2023-07-29T01:41:09;2.00;;;2.00;;
12818;SDS011;6474;53.474;9.894;2023-07-29T01:43:37;1.70;;;1.70;;
12818;SDS011;6474;53.474;9.894;2023-07-29T01:46:12;1.63;;;1.63;;
12818;SDS011;6474;53.474;9.894;2023-07-29T01:48:41;2.15;;;2.05;;
12818;SDS011;6474;53.474;9.894;2023-07-29T01:51:11;1.92;;;1.83;;
12818;SDS011;6474;53.474;9.894;2023-07-29T01:53:41;1.70;;;1.70;;
12818;SDS011;6474;53.474;9.894;2023-07-29T01:56:09;1.70;;;1.70;;
12818;SDS011;6474;53.474;9.894;2023-07-29T01:58:37;2.10;;;2.00;;
12818;SDS011;6474;53.474;9.894;2023-07-29T02:01:05;2.10;;;1.80;;
12818;SDS011;6474;53.474;9.894;2023-07-29T02:03:34;2.17;;;2.13;;
12818;SDS011;6474;53.474;9.894;2023-07-29T02:06:03;1.67;;;1.67;;
12818;SDS011;6474;53.474;9.894;2023-07-29T02:08:30;1.95;;;1.65;;
12818;SDS011;6474;53.474;9.894;2023-07-29T02:11:01;2.50;;;2.30;;
12818;SDS011;6474;53.474;9.894;2023-07-29T02:13:29;2.58;;;2.42;;
12818;SDS011;6474;53.474;9.894;2023-07-29T02:15:57;2.22;;;2.13;;
12818;SDS011;6474;53.474;9.894;2023-07-29T02:18:25;1.75;;;1.67;;
12818;SDS011;6474;53.474;9.894;2023-07-29T02:20:54;1.75;;;1.63;;
12818;SDS011;6474;53.474;9.894;2023-07-29T02:23:24;2.00;;;1.80;;
12818;SDS011;6474;53.474;9.894;2023-07-29T02:25:52;2.78;;;1.42;;
12818;SDS011;6474;53.474;9.894;2023-07-29T02:28:22;2.40;;;2.20;;
12818;SDS011;6474;53.474;9.894;2023-07-29T02:30:54;2.15;;;2.10;;
12818;SDS011;6474;53.474;9.894;2023-07-29T02:33:38;2.33;;;2.22;;
12818;SDS011;6474;53.474;9.894;2023-07-29T02:36:06;2.13;;;2.03;;
12818;SDS011;6474;53.474;9.894;2023-07-29T02:38:34;1.98;;;1.98;;
12818;SDS011;6474;53.474;9.894;2023-07-29T02:41:01;1.83;;;1.83;;
12818;SDS011;6474;53.474;9.894;2023-07-29T02:43:31;1.65;;;1.65;;
12818;SDS011;6474;53.474;9.894;2023-07-29T02:45:59;1.73;;;1.73;;
12818;SDS011;6474;53.474;9.894;2023-07-29T02:48:27;1.80;;;1.80;;
12818;SDS011;6474;53.474;9.894;2023-07-29T02:50:55;1.80;;;1.77;;
12818;SDS011;6474;53.474;9.894;2023-07-29T02:53:23;1.90;;;1.80;;
12818;SDS011;6474;53.474;9.894;2023-07-29T02:55:54;1.50;;;1.50;;
12818;SDS011;6474;53.474;9.894;2023-07-29T02:58:22;1.60;;;1.60;;
12818;SDS011;6474;53.474;9.894;2023-07-29T03:00:56;2.35;;;2.25;;
12818;SDS011;6474;53.474;9.894;2023-07-29T03:03:28;1.88;;;1.83;;
12818;SDS011;6474;53.474;9.894;2023-07-29T03:05:57;1.83;;;1.83;;
12818;SDS011;6474;53.474;9.894;2023-07-29T03:08:26;2.08;;;2.00;;
12818;SDS011;6474;53.474;9.894;2023-07-29T03:10:55;5.40;;;1.70;;
12818;SDS011;6474;53.474;9.894;2023-07-29T03:13:26;1.80;;;1.80;;
12818;SDS011;6474;53.474;9.894;2023-07-29T03:16:00;2.03;;;1.98;;
12818;SDS011;6474;53.474;9.894;2023-07-29T03:18:32;1.95;;;1.92;;
12818;SDS011;6474;53.474;9.894;2023-07-29T03:21:03;1.80;;;1.80;;
12818;SDS011;6474;53.474;9.894;2023-07-29T03:23:32;2.30;;;2.20;;
12818;SDS011;6474;53.474;9.894;2023-07-29T03:26:00;2.10;;;2.00;;
12818;SDS011;6474;53.474;9.894;2023-07-29T03:28:37;1.77;;;1.70;;
12818;SDS011;6474;53.474;9.894;2023-07-29T03:31:07;2.30;;;2.20;;
12818;SDS011;6474;53.474;9.894;2023-07-29T03:33:35;2.85;;;2.67;;
12818;SDS011;6474;53.474;9.894;2023-07-29T03:36:04;2.63;;;2.42;;
12818;SDS011;6474;53.474;9.894;2023-07-29T03:38:32;2.88;;;2.67;;
12818;SDS011;6474;53.474;9.894;2023-07-29T03:41:01;3.72;;;3.25;;
12818;SDS011;6474;53.474;9.894;2023-07-29T03:43:29;2.97;;;2.80;;
12818;SDS011;6474;53.474;9.894;2023-07-29T03:45:57;3.63;;;3.40;;
12818;SDS011;6474;53.474;9.894;2023-07-29T03:48:27;2.97;;;2.78;;
12818;SDS011;6474;53.474;9.894;2023-07-29T03:50:55;3.38;;;3.17;;
12818;SDS011;6474;53.474;9.894;2023-07-29T03:53:25;4.32;;;3.92;;
12818;SDS011;6474;53.474;9.894;2023-07-29T03:55:53;3.67;;;3.45;;
12818;SDS011;6474;53.474;9.894;2023-07-29T03:58:21;3.90;;;3.60;;
12818;SDS011;6474;53.474;9.894;2023-07-29T04:00:49;4.07;;;3.63;;
12818;SDS011;6474;53.474;9.894;2023-07-29T04:03:17;3.30;;;3.10;;
12818;SDS011;6474;53.474;9.894;2023-07-29T04:05:46;4.47;;;4.07;;
12818;SDS011;6474;53.474;9.894;2023-07-29T04:08:14;4.13;;;3.72;;
12818;SDS011;6474;53.474;9.894;2023-07-29T04:10:42;4.45;;;3.75;;
12818;SDS011;6474;53.474;9.894;2023-07-29T04:13:10;4.30;;;4.00;;
12818;SDS011;6474;53.474;9.894;2023-07-29T04:15:38;4.97;;;4.45;;
12818;SDS011;6474;53.474;9.894;2023-07-29T04:18:06;4.53;;;4.13;;
12818;SDS011;6474;53.474;9.894;2023-07-29T04:20:34;5.25;;;4.75;;
12818;SDS011;6474;53.474;9.894;2023-07-29T04:23:03;5.60;;;4.88;;
12818;SDS011;6474;53.474;9.894;2023-07-29T04:25:31;6.10;;;5.10;;
12818;SDS011;6474;53.474;9.894;2023-07-29T04:27:59;6.30;;;5.05;;
12818;SDS011;6474;53.474;9.894;2023-07-29T04:30:29;7.28;;;4.85;;
12818;SDS011;6474;53.474;9.894;2023-07-29T04:32:57;6.70;;;5.18;;
12818;SDS011;6474;53.474;9.894;2023-07-29T04:35:25;6.60;;;5.13;;
12818;SDS011;6474;53.474;9.894;2023-07-29T04:37:53;4.85;;;3.95;;
12818;SDS011;6474;53.474;9.894;2023-07-29T04:40:22;5.80;;;4.65;;
12818;SDS011;6474;53.474;9.894;2023-07-29T04:42:50;5.80;;;5.28;;
12818;SDS011;6474;53.474;9.894;2023-07-29T04:45:19;4.65;;;4.25;;
12818;SDS011;6474;53.474;9.894;2023-07-29T04:47:46;7.40;;;5.85;;
12818;SDS011;6474;53.474;9.894;2023-07-29T04:50:14;6.25;;;4.80;;
12818;SDS011;6474;53.474;9.894;2023-07-29T04:52:42;5.78;;;4.70;;
12818;SDS011;6474;53.474;9.894;2023-07-29T04:55:10;4.88;;;4.13;;
12818;SDS011;6474;53.474;9.894;2023-07-29T04:57:40;4.95;;;4.45;;
12818;SDS011;6474;53.474;9.894;2023-07-29T05:00:08;7.47;;;4.50;;
12818;SDS011;6474;53.474;9.894;2023-07-29T05:02:37;4.78;;;4.35;;
12818;SDS011;6474;53.474;9.894;2023-07-29T05:05:05;5.25;;;4.60;;
12818;SDS011;6474;53.474;9.894;2023-07-29T05:07:34;7.75;;;5.25;;
12818;SDS011;6474;53.474;9.894;2023-07-29T05:10:02;5.43;;;4.75;;
12818;SDS011;6474;53.474;9.894;2023-07-29T05:12:30;4.97;;;4.50;;
12818;SDS011;6474;53.474;9.894;2023-07-29T05:15:00;8.80;;;5.32;;
12818;SDS011;6474;53.474;9.894;2023-07-29T05:17:28;6.75;;;4.78;;
12818;SDS011;6474;53.474;9.894;2023-07-29T05:19:56;5.80;;;5.20;;
12818;SDS011;6474;53.474;9.894;2023-07-29T05:22:24;6.43;;;4.50;;
12818;SDS011;6474;53.474;9.894;2023-07-29T05:24:52;5.10;;;4.63;;
12818;SDS011;6474;53.474;9.894;2023-07-29T05:27:20;6.88;;;4.97;;
12818;SDS011;6474;53.474;9.894;2023-07-29T05:29:48;9.40;;;4.88;;
12818;SDS011;6474;53.474;9.894;2023-07-29T05:32:17;5.93;;;4.63;;
12818;SDS011;6474;53.474;9.894;2023-07-29T05:34:45;5.05;;;4.65;;
12818;SDS011;6474;53.474;9.894;2023-07-29T05:37:13;5.05;;;4.55;;
12818;SDS011;6474;53.474;9.894;2023-07-29T05:39:42;4.97;;;4.32;;
12818;SDS011;6474;53.474;9.894;2023-07-29T05:42:10;5.40;;;4.63;;
12818;SDS011;6474;53.474;9.894;2023-07-29T05:44:38;5.38;;;4.88;;
12818;SDS011;6474;53.474;9.894;2023-07-29T05:47:06;4.70;;;4.30;;
12818;SDS011;6474;53.474;9.894;2023-07-29T05:49:35;4.80;;;4.22;;
12818;SDS011;6474;53.474;9.894;2023-07-29T05:52:04;5.38;;;4.88;;
12818;SDS011;6474;53.474;9.894;2023-07-29T05:54:32;5.65;;;4.43;;
12818;SDS011;6474;53.474;9.894;2023-07-29T05:57:00;5.47;;;4.80;;
12818;SDS011;6474;53.474;9.894;2023-07-29T05:59:28;5.63;;;4.93;;
12818;SDS011;6474;53.474;9.894;2023-07-29T06:01:56;5.10;;;4.70;;
12818;SDS011;6474;53.474;9.894;2023-07-29T06:04:24;6.80;;;5.32;;
12818;SDS011;6474;53.474;9.894;2023-07-29T06:06:53;5.65;;;5.05;;
12818;SDS011;6474;53.474;9.894;2023-07-29T06:09:21;5.32;;;4.80;;
12818;SDS011;6474;53.474;9.894;2023-07-29T06:11:49;5.95;;;5.10;;
12818;SDS011;6474;53.474;9.894;2023-07-29T06:14:20;7.22;;;5.18;;
12818;SDS011;6474;53.474;9.894;2023-07-29T06:16:48;7.43;;;5.05;;
12818;SDS011;6474;53.474;9.894;2023-07-29T06:19:17;5.10;;;4.60;;
12818;SDS011;6474;53.474;9.894;2023-07-29T06:21:45;7.25;;;4.95;;
12818;SDS011;6474;53.474;9.894;2023-07-29T06:24:14;8.65;;;5.65;;
12818;SDS011;6474;53.474;9.894;2023-07-29T06:26:42;6.13;;;5.45;;
12818;SDS011;6474;53.474;9.894;2023-07-29T06:29:10;5.07;;;4.57;;
12818;SDS011;6474;53.474;9.894;2023-07-29T06:31:38;6.68;;;5.22;;
12818;SDS011;6474;53.474;9.894;2023-07-29T06:34:06;7.47;;;5.40;;
12818;SDS011;6474;53.474;9.894;2023-07-29T06:36:34;5.15;;;4.65;;
12818;SDS011;6474;53.474;9.894;2023-07-29T06:39:02;7.63;;;4.90;;
12818;SDS011;6474;53.474;9.894;2023-07-29T06:41:31;7.47;;;5.68;;
12818;SDS011;6474;53.474;9.894;2023-07-29T06:43:59;7.47;;;5.20;;
12818;SDS011;6474;53.474;9.894;2023-07-29T06:46:27;6.05;;;4.93;;
12818;SDS011;6474;53.474;9.894;2023-07-29T06:48:55;7.22;;;5.85;;
12818;SDS011;6474;53.474;9.894;2023-07-29T06:51:23;5.72;;;4.82;;
12818;SDS011;6474;53.474;9.894;2023-07-29T06:53:51;5.15;;;4.55;;
12818;SDS011;6474;53.474;9.894;2023-07-29T06:56:18;4.55;;;4.15;;
12818;SDS011;6474;53.474;9.894;2023-07-29T06:58:47;6.85;;;5.45;;
12818;SDS011;6474;53.474;9.894;2023-07-29T07:01:15;4.55;;;4.18;;
12818;SDS011;6474;53.474;9.894;2023-07-29T07:03:44;4.60;;;4.22;;
12818;SDS011;6474;53.474;9.894;2023-07-29T07:06:12;5.05;;;4.68;;
12818;SDS011;6474;53.474;9.894;2023-07-29T07:08:39;4.65;;;4.20;;
12818;SDS011;6474;53.474;9.894;2023-07-29T07:11:08;4.85;;;4.43;;
12818;SDS011;6474;53.474;9.894;2023-07-29T07:13:36;3.53;;;3.33;;
12818;SDS011;6474;53.474;9.894;2023-07-29T07:16:05;3.80;;;3.60;;
12818;SDS011;6474;53.474;9.894;2023-07-29T07:18:33;4.03;;;3.75;;
12818;SDS011;6474;53.474;9.894;2023-07-29T07:21:01;4.57;;;4.18;;
12818;SDS011;6474;53.474;9.894;2023-07-29T07:23:29;3.83;;;3.63;;
12818;SDS011;6474;53.474;9.894;2023-07-29T07:25:57;3.88;;;3.60;;
12818;SDS011;6474;53.474;9.894;2023-07-29T07:28:25;4.65;;;4.25;;
12818;SDS011;6474;53.474;9.894;2023-07-29T07:30:53;4.05;;;3.78;;
12818;SDS011;6474;53.474;9.894;2023-07-29T07:33:23;4.22;;;3.83;;
12818;SDS011;6474;53.474;9.894;2023-07-29T07:35:51;4.13;;;3.83;;
12818;SDS011;6474;53.474;9.894;2023-07-29T07:38:19;3.65;;;3.40;;
12818;SDS011;6474;53.474;9.894;2023-07-29T07:40:52;3.75;;;3.58;;
12818;SDS011;6474;53.474;9.894;2023-07-29T07:43:21;3.88;;;3.38;;
12818;SDS011;6474;53.474;9.894;2023-07-29T07:45:49;3.30;;;3.17;;
12818;SDS011;6474;53.474;9.894;2023-07-29T07:48:18;3.50;;;3.30;;
12818;SDS011;6474;53.474;9.894;2023-07-29T07:50:47;5.55;;;3.40;;
12818;SDS011;6474;53.474;9.894;2023-07-29T07:53:15;3.47;;;3.22;;
12818;SDS011;6474;53.474;9.894;2023-07-29T07:55:43;5.88;;;3.60;;
12818;SDS011;6474;53.474;9.894;2023-07-29T07:58:11;3.92;;;3.60;;
12818;SDS011;6474;53.474;9.894;2023-07-29T08:00:42;3.13;;;3.03;;
12818;SDS011;6474;53.474;9.894;2023-07-29T08:03:09;3.13;;;2.92;;
12818;SDS011;6474;53.474;9.894;2023-07-29T08:05:37;3.22;;;3.13;;
12818;SDS011;6474;53.474;9.894;2023-07-29T08:08:06;3.75;;;3.53;;
12818;SDS011;6474;53.474;9.894;2023-07-29T08:10:34;3.22;;;2.97;;
12818;SDS011;6474;53.474;9.894;2023-07-29T08:13:02;3.60;;;3.35;;
12818;SDS011;6474;53.474;9.894;2023-07-29T08:15:30;4.22;;;3.92;;
12818;SDS011;6474;53.474;9.894;2023-07-29T08:17:58;4.18;;;3.88;;
12818;SDS011;6474;53.474;9.894;2023-07-29T08:20:26;3.50;;;3.22;;
12818;SDS011;6474;53.474;9.894;2023-07-29T08:22:54;3.20;;;3.10;;
12818;SDS011;6474;53.474;9.894;2023-07-29T08:25:23;3.35;;;3.15;;
12818;SDS011;6474;53.474;9.894;2023-07-29T08:27:51;7.22;;;3.63;;
12818;SDS011;6474;53.474;9.894;2023-07-29T08:30:19;3.58;;;3.38;;
12818;SDS011;6474;53.474;9.894;2023-07-29T08:32:47;4.75;;;3.50;;
12818;SDS011;6474;53.474;9.894;2023-07-29T08:35:15;3.30;;;3.10;;
12818;SDS011;6474;53.474;9.894;2023-07-29T08:37:43;3.75;;;3.55;;
12818;SDS011;6474;53.474;9.894;2023-07-29T08:40:11;3.90;;;3.70;;
12818;SDS011;6474;53.474;9.894;2023-07-29T08:42:41;3.03;;;2.92;;
12818;SDS011;6474;53.474;9.894;2023-07-29T08:45:12;3.40;;;3.22;;
12818;SDS011;6474;53.474;9.894;2023-07-29T08:47:41;3.08;;;2.97;;
12818;SDS011;6474;53.474;9.894;2023-07-29T08:50:09;3.72;;;3.42;;
12818;SDS011;6474;53.474;9.894;2023-07-29T08:52:40;4.03;;;3.72;;
12818;SDS011;6474;53.474;9.894;2023-07-29T08:55:10;3.67;;;3.38;;
12818;SDS011;6474;53.474;9.894;2023-07-29T08:57:38;4.43;;;4.03;;
12818;SDS011;6474;53.474;9.894;2023-07-29T09:00:08;3.75;;;3.58;;
12818;SDS011;6474;53.474;9.894;2023-07-29T09:02:37;4.07;;;3.80;;
12818;SDS011;6474;53.474;9.894;2023-07-29T09:05:06;4.30;;;3.90;;
12818;SDS011;6474;53.474;9.894;2023-07-29T09:07:34;4.28;;;4.00;;
12818;SDS011;6474;53.474;9.894;2023-07-29T09:10:04;4.28;;;3.75;;
12818;SDS011;6474;53.474;9.894;2023-07-29T09:12:36;4.60;;;4.20;;
12818;SDS011;6474;53.474;9.894;2023-07-29T09:15:04;3.83;;;3.53;;
12818;SDS011;6474;53.474;9.894;2023-07-29T09:17:34;3.95;;;3.75;;
12818;SDS011;6474;53.474;9.894;2023-07-29T09:20:02;3.75;;;3.50;;
12818;SDS011;6474;53.474;9.894;2023-07-29T09:22:31;3.47;;;3.38;;
12818;SDS011;6474;53.474;9.894;2023-07-29T09:24:59;3.38;;;3.17;;
12818;SDS011;6474;53.474;9.894;2023-07-29T09:27:27;3.30;;;3.20;;
12818;SDS011;6474;53.474;9.894;2023-07-29T09:29:57;3.60;;;3.38;;
12818;SDS011;6474;53.474;9.894;2023-07-29T09:32:25;3.70;;;3.50;;
12818;SDS011;6474;53.474;9.894;2023-07-29T09:34:55;2.95;;;2.85;;
12818;SDS011;6474;53.474;9.894;2023-07-29T09:37:23;3.25;;;3.05;;
12818;SDS011;6474;53.474;9.894;2023-07-29T09:39:51;2.72;;;2.63;;
12818;SDS011;6474;53.474;9.894;2023-07-29T09:42:19;3.22;;;3.00;;
12818;SDS011;6474;53.474;9.894;2023-07-29T09:44:49;3.28;;;2.97;;
12818;SDS011;6474;53.474;9.894;2023-07-29T09:47:21;3.08;;;2.97;;
12818;SDS011;6474;53.474;9.894;2023-07-29T09:49:49;2.70;;;2.50;;
12818;SDS011;6474;53.474;9.894;2023-07-29T09:52:20;2.42;;;2.33;;
12818;SDS011;6474;53.474;9.894;2023-07-29T09:54:50;3.20;;;2.20;;
12818;SDS011;6474;53.474;9.894;2023-07-29T09:57:18;2.00;;;1.92;;
12818;SDS011;6474;53.474;9.894;2023-07-29T09:59:53;1.98;;;1.95;;
12818;SDS011;6474;53.474;9.894;2023-07-29T10:02:21;1.60;;;1.60;;
12818;SDS011;6474;53.474;9.894;2023-07-29T10:04:51;1.75;;;1.75;;
12818;SDS011;6474;53.474;9.894;2023-07-29T10:07:21;1.58;;;1.58;;
12818;SDS011;6474;53.474;9.894;2023-07-29T10:09:49;2.10;;;2.00;;
12818;SDS011;6474;53.474;9.894;2023-07-29T10:12:20;2.83;;;1.48;;
12818;SDS011;6474;53.474;9.894;2023-07-29T10:14:49;1.58;;;1.58;;
12818;SDS011;6474;53.474;9.894;2023-07-29T10:17:17;1.38;;;1.38;;
12818;SDS011;6474;53.474;9.894;2023-07-29T10:19:48;1.42;;;1.42;;
12818;SDS011;6474;53.474;9.894;2023-07-29T10:22:17;1.45;;;1.40;;
12818;SDS011;6474;53.474;9.894;2023-07-29T10:24:52;1.30;;;1.30;;
12818;SDS011;6474;53.474;9.894;2023-07-29T10:27:23;1.30;;;1.30;;
12818;SDS011;6474;53.474;9.894;2023-07-29T10:29:52;1.27;;;1.27;;
12818;SDS011;6474;53.474;9.894;2023-07-29T10:32:24;1.27;;;1.27;;
12818;SDS011;6474;53.474;9.894;2023-07-29T10:34:54;1.20;;;1.20;;
12818;SDS011;6474;53.474;9.894;2023-07-29T10:37:23;6.60;;;1.30;;
12818;SDS011;6474;53.474;9.894;2023-07-29T10:39:52;1.10;;;1.10;;
12818;SDS011;6474;53.474;9.894;2023-07-29T10:42:22;1.10;;;1.10;;
12818;SDS011;6474;53.474;9.894;2023-07-29T10:44:50;1.42;;;1.42;;
12818;SDS011;6474;53.474;9.894;2023-07-29T10:47:21;1.10;;;1.10;;
12818;SDS011;6474;53.474;9.894;2023-07-29T10:49:52;1.08;;;1.08;;
12818;SDS011;6474;53.474;9.894;2023-07-29T10:52:29;1.20;;;1.20;;
12818;SDS011;6474;53.474;9.894;2023-07-29T10:55:04;1.08;;;1.08;;
12818;SDS011;6474;53.474;9.894;2023-07-29T10:57:54;0.90;;;0.90;;
12818;SDS011;6474;53.474;9.894;2023-07-29T11:00:32;1.60;;;1.50;;
12818;SDS011;6474;53.474;9.894;2023-07-29T11:03:01;1.40;;;1.40;;
12818;SDS011;6474;53.474;9.894;2023-07-29T11:05:46;1.13;;;1.13;;
12818;SDS011;6474;53.474;9.894;2023-07-29T11:08:17;1.42;;;1.23;;
12818;SDS011;6474;53.474;9.894;2023-07-29T11:11:00;1.05;;;1.05;;
12818;SDS011;6474;53.474;9.894;2023-07-29T11:13:31;1.80;;;1.80;;
12818;SDS011;6474;53.474;9.894;2023-07-29T11:16:01;1.77;;;1.77;;
12818;SDS011;6474;53.474;9.894;2023-07-29T11:18:30;2.88;;;1.42;;
12818;SDS011;6474;53.474;9.894;2023-07-29T11:21:00;3.03;;;1.40;;
12818;SDS011;6474;53.474;9.894;2023-07-29T11:23:31;1.30;;;1.30;;
12818;SDS011;6474;53.474;9.894;2023-07-29T11:26:00;1.30;;;1.30;;
12818;SDS011;6474;53.474;9.894;2023-07-29T11:28:29;1.63;;;1.63;;
12818;SDS011;6474;53.474;9.894;2023-07-29T11:30:57;2.22;;;2.13;;
12818;SDS011;6474;53.474;9.894;2023-07-29T11:33:27;1.88;;;1.88;;
12818;SDS011;6474;53.474;9.894;2023-07-29T11:35:55;1.70;;;1.70;;
12818;SDS011;6474;53.474;9.894;2023-07-29T11:38:24;1.98;;;1.88;;
12818;SDS011;6474;53.474;9.894;2023-07-29T11:40:55;5.43;;;2.00;;
12818;SDS011;6474;53.474;9.894;2023-07-29T11:43:25;2.10;;;2.00;;
12818;SDS011;6474;53.474;9.894;2023-07-29T11:45:54;1.83;;;1.73;;
12818;SDS011;6474;53.474;9.894;2023-07-29T11:48:28;1.60;;;1.60;;
12818;SDS011;6474;53.474;9.894;2023-07-29T11:50:58;1.50;;;1.50;;
12818;SDS011;6474;53.474;9.894;2023-07-29T11:53:27;1.67;;;1.67;;
12818;SDS011;6474;53.474;9.894;2023-07-29T11:55:58;1.77;;;1.77;;
12818;SDS011;6474;53.474;9.894;2023-07-29T11:58:26;1.40;;;1.40;;
12818;SDS011;6474;53.474;9.894;2023-07-29T12:00:55;1.50;;;1.45;;
12818;SDS011;6474;53.474;9.894;2023-07-29T12:03:23;1.48;;;1.48;;
12818;SDS011;6474;53.474;9.894;2023-07-29T12:05:53;1.33;;;1.33;;
12818;SDS011;6474;53.474;9.894;2023-07-29T12:08:21;1.10;;;1.10;;
12818;SDS011;6474;53.474;9.894;2023-07-29T12:10:50;1.15;;;1.15;;
12818;SDS011;6474;53.474;9.894;2023-07-29T12:13:23;2.67;;;1.30;;
12818;SDS011;6474;53.474;9.894;2023-07-29T12:15:51;1.20;;;1.20;;
12818;SDS011;6474;53.474;9.894;2023-07-29T12:18:20;1.10;;;1.10;;
12818;SDS011;6474;53.474;9.894;2023-07-29T12:20:57;1.00;;;1.00;;
12818;SDS011;6474;53.474;9.894;2023-07-29T12:23:25;1.33;;;1.33;;
12818;SDS011;6474;53.474;9.894;2023-07-29T12:25:56;1.10;;;1.10;;
12818;SDS011;6474;53.474;9.894;2023-07-29T12:28:26;1.38;;;1.38;;
12818;SDS011;6474;53.474;9.894;2023-07-29T12:30:54;1.30;;;1.30;;
12818;SDS011;6474;53.474;9.894;2023-07-29T12:33:29;0.93;;;0.93;;
12818;SDS011;6474;53.474;9.894;2023-07-29T12:35:57;1.15;;;1.15;;
12818;SDS011;6474;53.474;9.894;2023-07-29T12:38:25;0.93;;;0.93;;
12818;SDS011;6474;53.474;9.894;2023-07-29T12:40:54;1.20;;;1.20;;
12818;SDS011;6474;53.474;9.894;2023-07-29T12:43:22;1.05;;;1.05;;
12818;SDS011;6474;53.474;9.894;2023-07-29T12:45:52;1.40;;;1.40;;
12818;SDS011;6474;53.474;9.894;2023-07-29T12:48:20;1.25;;;1.10;;
12818;SDS011;6474;53.474;9.894;2023-07-29T12:50:47;4.30;;;1.40;;
12818;SDS011;6474;53.474;9.894;2023-07-29T12:53:15;1.17;;;1.17;;
12818;SDS011;6474;53.474;9.894;2023-07-29T12:55:44;1.50;;;1.50;;
12818;SDS011;6474;53.474;9.894;2023-07-29T12:58:12;1.40;;;1.40;;
12818;SDS011;6474;53.474;9.894;2023-07-29T13:00:40;1.30;;;1.30;;
12818;SDS011;6474;53.474;9.894;2023-07-29T13:03:09;1.05;;;1.05;;
12818;SDS011;6474;53.474;9.894;2023-07-29T13:05:37;3.33;;;1.10;;
12818;SDS011;6474;53.474;9.894;2023-07-29T13:08:05;1.08;;;1.08;;
12818;SDS011;6474;53.474;9.894;2023-07-29T13:10:33;1.30;;;1.30;;
12818;SDS011;6474;53.474;9.894;2023-07-29T13:13:01;1.10;;;1.10;;
12818;SDS011;6474;53.474;9.894;2023-07-29T13:15:29;1.30;;;1.30;;
12818;SDS011;6474;53.474;9.894;2023-07-29T13:17:57;1.48;;;1.48;;
12818;SDS011;6474;53.474;9.894;2023-07-29T13:20:26;1.52;;;1.42;;
12818;SDS011;6474;53.474;9.894;2023-07-29T13:22:55;1.50;;;1.50;;
12818;SDS011;6474;53.474;9.894;2023-07-29T13:25:23;1.23;;;1.23;;
12818;SDS011;6474;53.474;9.894;2023-07-29T13:27:51;1.20;;;1.20;;
12818;SDS011;6474;53.474;9.894;2023-07-29T13:30:19;1.40;;;1.40;;
12818;SDS011;6474;53.474;9.894;2023-07-29T13:32:47;1.38;;;1.38;;
12818;SDS011;6474;53.474;9.894;2023-07-29T13:35:15;1.15;;;1.15;;
12818;SDS011;6474;53.474;9.894;2023-07-29T13:37:44;1.20;;;1.10;;
12818;SDS011;6474;53.474;9.894;2023-07-29T13:40:12;1.42;;;1.42;;
12818;SDS011;6474;53.474;9.894;2023-07-29T13:42:40;1.52;;;1.52;;
12818;SDS011;6474;53.474;9.894;2023-07-29T13:45:08;1.33;;;1.33;;
12818;SDS011;6474;53.474;9.894;2023-07-29T13:47:36;1.30;;;1.30;;
12818;SDS011;6474;53.474;9.894;2023-07-29T13:50:05;1.30;;;1.30;;
12818;SDS011;6474;53.474;9.894;2023-07-29T13:52:35;1.20;;;1.20;;
12818;SDS011;6474;53.474;9.894;2023-07-29T13:55:05;1.40;;;1.30;;
12818;SDS011;6474;53.474;9.894;2023-07-29T13:57:33;1.65;;;1.55;;
12818;SDS011;6474;53.474;9.894;2023-07-29T14:00:01;1.20;;;1.20;;
12818;SDS011;6474;53.474;9.894;2023-07-29T14:02:29;1.63;;;1.52;;
12818;SDS011;6474;53.474;9.894;2023-07-29T14:04:58;1.10;;;1.10;;
12818;SDS011;6474;53.474;9.894;2023-07-29T14:07:26;1.40;;;1.20;;
12818;SDS011;6474;53.474;9.894;2023-07-29T14:09:54;0.98;;;0.98;;
12818;SDS011;6474;53.474;9.894;2023-07-29T14:12:28;0.95;;;0.95;;
12818;SDS011;6474;53.474;9.894;2023-07-29T14:14:55;1.00;;;1.00;;
12818;SDS011;6474;53.474;9.894;2023-07-29T14:17:23;1.10;;;1.10;;
12818;SDS011;6474;53.474;9.894;2023-07-29T14:19:51;1.00;;;1.00;;
12818;SDS011;6474;53.474;9.894;2023-07-29T14:22:19;0.93;;;0.93;;
12818;SDS011;6474;53.474;9.894;2023-07-29T14:24:47;1.50;;;0.90;;
12818;SDS011;6474;53.474;9.894;2023-07-29T14:27:15;1.00;;;1.00;;
12818;SDS011;6474;53.474;9.894;2023-07-29T14:29:44;0.93;;;0.93;;
12818;SDS011;6474;53.474;9.894;2023-07-29T14:32:12;1.02;;;1.02;;
12818;SDS011;6474;53.474;9.894;2023-07-29T14:34:40;1.35;;;1.02;;
12818;SDS011;6474;53.474;9.894;2023-07-29T14:37:09;1.13;;;1.13;;
12818;SDS011;6474;53.474;9.894;2023-07-29T14:39:37;1.00;;;1.00;;
12818;SDS011;6474;53.474;9.894;2023-07-29T14:42:05;1.58;;;1.25;;
12818;SDS011;6474;53.474;9.894;2023-07-29T14:44:34;0.73;;;0.73;;
12818;SDS011;6474;53.474;9.894;2023-07-29T14:47:03;1.05;;;1.00;;
12818;SDS011;6474;53.474;9.894;2023-07-29T14:49:32;2.03;;;0.93;;
12818;SDS011;6474;53.474;9.894;2023-07-29T14:52:00;1.10;;;1.10;;
12818;SDS011;6474;53.474;9.894;2023-07-29T14:54:29;0.85;;;0.85;;
12818;SDS011;6474;53.474;9.894;2023-07-29T14:57:00;1.17;;;1.17;;
12818;SDS011;6474;53.474;9.894;2023-07-29T14:59:28;1.10;;;1.10;;
12818;SDS011;6474;53.474;9.894;2023-07-29T15:01:56;0.90;;;0.90;;
12818;SDS011;6474;53.474;9.894;2023-07-29T15:04:26;1.05;;;1.05;;
12818;SDS011;6474;53.474;9.894;2023-07-29T15:06:54;1.02;;;1.02;;
12818;SDS011;6474;53.474;9.894;2023-07-29T15:09:22;1.00;;;1.00;;
12818;SDS011;6474;53.474;9.894;2023-07-29T15:11:50;1.00;;;1.00;;